Time;durP1;ratioP1;P1;durP2;ratioP2;P2;SDS_P1;SDS_P2;PMS_P1;PMS_P2;Temp;Humidity;BMP_temperature;BMP_pressure;BME280_temperature;BME280_humidity;BME280_pressure;Samples;Min_cycle;Max_cycle;Signal;HPM_P1;HPM_P2
2021/11/01 00:00:08;;;;;;;;;;;;;;;11.72;47.20;97499.28;1767887;79;24689;-84
2021/11/01 00:02:36;;;;;;;;;;;;;;;11.71;47.28;97502.87;1771220;79;20169;-84
2021/11/01 00:05:02;;;;;;;;;;;;;;;11.70;47.32;97495.48;1761421;79;26035;-84
2021/11/01 00:07:28;;;;;;;;;;;;;;;11.70;47.39;97501.20;1757204;79;24518;-84
2021/11/01 00:09:54;;;;;;;;;;;;;;;11.70;47.45;97499.89;1768795;80;20161;-83
2021/11/01 00:12:26;;;;;;;;;;;;;;;11.70;47.50;97502.52;1765001;80;24762;-82
2021/11/01 00:14:49;;;;;;;;;;;;;;;11.71;47.52;97502.39;1763257;80;22772;-83
2021/11/01 00:17:15;;;;;;;;;;;;;;;11.69;47.58;97485.96;1765059;79;26097;-82
2021/11/01 00:19:41;;;;;;;;;;;;;;;11.71;47.63;97485.83;1762012;80;24379;-83
2021/11/01 00:22:07;;;;;;;;;;;;;;;11.67;47.70;97487.88;1776116;80;20237;-83
2021/11/01 00:24:33;;;;;;;;;;;;;;;11.68;47.73;97490.85;1772393;80;24838;-83
2021/11/01 00:27:01;;;;;;;;;;;;;;;11.70;47.79;97475.00;1776887;80;20317;-83
2021/11/01 00:29:27;;;;;;;;;;;;;;;11.70;47.84;97464.52;1773015;80;26019;-82
2021/11/01 00:31:53;;;;;;;;;;;;;;;11.70;47.89;97464.03;1777615;79;20240;-83
2021/11/01 00:34:20;;;;;;;;;;;;;;;11.71;47.94;97460.94;1776454;80;20333;-82
2021/11/01 00:36:46;;;;;;;;;;;;;;;11.68;48.01;97448.09;1767112;79;24718;-83
2021/11/01 00:39:12;;;;;;;;;;;;;;;11.65;48.07;97452.30;1770577;78;21925;-83
2021/11/01 00:41:38;;;;;;;;;;;;;;;11.67;48.15;97461.67;1783171;79;26047;-83
2021/11/01 00:44:07;;;;;;;;;;;;;;;11.68;48.19;97457.26;1776123;79;24525;-83
2021/11/01 00:46:33;;;;;;;;;;;;;;;11.67;48.25;97446.45;1728028;80;20221;-83
2021/11/01 00:48:59;;;;;;;;;;;;;;;11.65;48.30;97447.89;1768880;79;20326;-83
2021/11/01 00:51:25;;;;;;;;;;;;;;;11.65;48.35;97440.52;1779936;79;20289;-83
2021/11/01 00:53:51;;;;;;;;;;;;;;;11.63;48.40;97434.09;1779743;79;26080;-83
2021/11/01 00:56:17;;;;;;;;;;;;;;;11.63;48.47;97431.47;1775914;80;20248;-83
2021/11/01 00:58:44;;;;;;;;;;;;;;;11.62;48.52;97434.22;1781928;78;20141;-83
2021/11/01 01:01:10;;;;;;;;;;;;;;;11.59;48.57;97425.34;1779416;79;24824;-83
2021/11/01 01:03:37;;;;;;;;;;;;;;;11.58;48.63;97421.06;1781530;79;21956;-83
2021/11/01 01:06:03;;;;;;;;;;;;;;;11.56;48.68;97412.05;1785963;79;25981;-83
2021/11/01 01:08:29;;;;;;;;;;;;;;;11.55;48.73;97416.94;1774787;78;24448;-83
2021/11/01 01:10:55;;;;;;;;;;;;;;;11.52;48.79;97425.53;1775800;80;20444;-83
2021/11/01 01:13:24;;;;;;;;;;;;;;;11.53;48.88;97415.41;1815879;77;24619;-82
2021/11/01 01:16:08;;;;;;;;;;;;;;;11.49;48.93;97430.58;1771292;79;22801;-83
2021/11/01 01:18:30;;;;;;;;;;;;;;;11.48;48.99;97435.47;1755096;79;25960;-83
2021/11/01 01:20:59;;;;;;;;;;;;;;;11.46;49.06;97414.30;1779394;79;25298;-83
2021/11/01 01:23:23;;;;;;;;;;;;;;;11.46;49.13;97419.05;1771764;79;20213;-83
2021/11/01 01:25:55;;;;;;;;;;;;;;;11.48;49.20;97433.33;1777066;79;25533;-83
2021/11/01 01:28:23;;;;;;;;;;;;;;;11.49;49.27;97425.83;1775172;79;21999;-83
2021/11/01 01:30:49;;;;;;;;;;;;;;;11.48;49.31;97409.75;1766048;79;26019;-83
2021/11/01 01:33:16;;;;;;;;;;;;;;;11.46;49.36;97421.67;1770133;79;24451;-83
2021/11/01 01:35:42;;;;;;;;;;;;;;;11.42;49.43;97410.30;1760953;79;20158;-83
2021/11/01 01:38:09;;;;;;;;;;;;;;;11.42;49.48;97421.61;1768374;79;24981;-84
2021/11/01 01:40:35;;;;;;;;;;;;;;;11.43;49.54;97417.20;1760049;79;21920;-83
2021/11/01 01:43:03;;;;;;;;;;;;;;;11.44;49.58;97411.00;1769499;79;25859;-82
2021/11/01 01:45:30;;;;;;;;;;;;;;;11.41;49.62;97412.09;1773826;80;24021;-83
2021/11/01 01:47:56;;;;;;;;;;;;;;;11.42;49.67;97411.61;1767689;80;20288;-82
2021/11/01 01:50:22;;;;;;;;;;;;;;;11.42;49.70;97402.44;1769614;80;24718;-83
2021/11/01 01:52:49;;;;;;;;;;;;;;;11.42;49.74;97402.44;1766803;79;21962;-82
2021/11/01 01:55:16;;;;;;;;;;;;;;;11.42;49.76;97403.27;1762845;80;25978;-82
2021/11/01 01:57:42;;;;;;;;;;;;;;;11.41;49.80;97402.09;1770244;80;24427;-82
2021/11/01 02:00:19;;;;;;;;;;;;;;;11.37;49.84;97392.86;1771289;80;20204;-83
2021/11/01 02:02:38;;;;;;;;;;;;;;;11.37;49.87;97390.23;1772897;78;25034;-84
2021/11/01 02:05:06;;;;;;;;;;;;;;;11.38;49.91;97389.28;1773142;80;21961;-82
2021/11/01 02:07:34;;;;;;;;;;;;;;;11.38;49.93;97392.73;1750209;80;25993;-82
2021/11/01 02:10:02;;;;;;;;;;;;;;;11.34;49.97;97382.19;1769622;79;24507;-82
2021/11/01 02:12:45;;;;;;;;;;;;;;;11.32;50.01;97387.55;1768174;80;20261;-82
2021/11/01 02:15:22;;;;;;;;;;;;;;;11.32;50.03;97381.48;1762605;80;25334;-82
2021/11/01 02:17:49;;;;;;;;;;;;;;;11.32;50.08;97386.25;1770163;80;21898;-82
2021/11/01 02:20:17;;;;;;;;;;;;;;;11.27;50.09;97392.38;1805409;77;26624;-82
2021/11/01 02:22:48;;;;;;;;;;;;;;;11.28;50.12;97395.83;1773937;80;24407;-83
2021/11/01 02:25:29;;;;;;;;;;;;;;;11.29;50.14;97400.91;1775359;79;20217;-82
2021/11/01 02:27:55;;;;;;;;;;;;;;;11.30;50.18;97401.73;1774810;80;25602;-82
2021/11/01 02:30:21;;;;;;;;;;;;;;;11.32;50.21;97403.75;1782798;79;21931;-82
2021/11/01 02:32:47;;;;;;;;;;;;;;;11.30;50.20;97391.27;1781160;79;26019;-82
2021/11/01 02:35:13;;;;;;;;;;;;;;;11.25;50.24;97391.68;1779769;80;24513;-81
2021/11/01 02:37:40;;;;;;;;;;;;;;;11.28;50.25;97390.11;1781362;78;20247;-82
2021/11/01 02:40:08;;;;;;;;;;;;;;;11.28;50.28;97382.73;1775337;79;25610;-81
2021/11/01 02:42:34;;;;;;;;;;;;;;;11.26;50.31;97381.55;1784349;78;22120;-81
2021/11/01 02:45:08;;;;;;;;;;;;;;;11.22;50.31;97380.66;1781708;78;26568;-81
2021/11/01 02:47:35;;;;;;;;;;;;;;;11.23;50.35;97394.94;1779502;78;24443;-81
2021/11/01 02:50:03;;;;;;;;;;;;;;;11.21;50.36;97388.99;1781381;78;20576;-82
2021/11/01 02:52:30;;;;;;;;;;;;;;;11.24;50.36;97395.25;1777821;78;24731;-82
2021/11/01 02:54:56;;;;;;;;;;;;;;;11.26;50.40;97394.65;1814632;77;21945;-82
2021/11/01 02:57:23;;;;;;;;;;;;;;;11.27;50.43;97386.31;1772468;78;26128;-83
2021/11/01 02:59:49;;;;;;;;;;;;;;;11.20;50.44;97379.48;1774913;78;24533;-83
2021/11/01 03:02:16;;;;;;;;;;;;;;;11.16;50.48;97371.55;1774533;79;20577;-82
2021/11/01 03:04:44;;;;;;;;;;;;;;;11.12;50.52;97368.88;1782551;78;24799;-82
2021/11/01 03:07:15;;;;;;;;;;;;;;;11.10;50.56;97365.55;1776263;78;22232;-83
2021/11/01 03:09:40;;;;;;;;;;;;;;;11.12;50.59;97363.64;1774041;78;26674;-82
2021/11/01 03:12:10;;;;;;;;;;;;;;;11.13;50.63;97366.58;1772538;78;24433;-83
2021/11/01 03:14:43;;;;;;;;;;;;;;;11.17;50.65;97371.08;1780873;79;20141;-82
2021/11/01 03:17:08;;;;;;;;;;;;;;;11.19;50.67;97382.22;1806002;77;25530;-82
2021/11/01 03:19:37;;;;;;;;;;;;;;;11.22;50.70;97369.70;1782322;79;22196;-83
2021/11/01 03:22:04;;;;;;;;;;;;;;;11.25;50.72;97372.52;1769996;80;26191;-83
2021/11/01 03:24:32;;;;;;;;;;;;;;;11.24;50.73;97379.54;1774385;79;24548;-83
2021/11/01 03:26:58;;;;;;;;;;;;;;;11.23;50.75;97370.05;1765851;79;20241;-83
2021/11/01 03:29:25;;;;;;;;;;;;;;;11.24;50.77;97370.86;1769983;79;24759;-83
2021/11/01 03:31:51;;;;;;;;;;;;;;;11.24;50.78;97363.00;1773290;79;22199;-83
2021/11/01 03:34:18;;;;;;;;;;;;;;;11.22;50.80;97356.61;1771451;79;26023;-83
2021/11/01 03:36:45;;;;;;;;;;;;;;;11.20;50.83;97342.81;1775643;79;24387;-83
2021/11/01 03:39:14;;;;;;;;;;;;;;;11.21;50.85;97344.48;1770427;79;20165;-83
2021/11/01 03:41:41;;;;;;;;;;;;;;;11.17;50.88;97339.17;1767799;79;24763;-82
2021/11/01 03:44:09;;;;;;;;;;;;;;;11.16;50.87;97333.59;1774739;79;22095;-82
2021/11/01 03:46:52;;;;;;;;;;;;;;;11.15;50.90;97323.24;1762181;79;26799;-82
2021/11/01 03:49:13;;;;;;;;;;;;;;;11.15;50.95;97332.41;1780934;78;23916;-82
2021/11/01 03:54:12;;;;;;;;;;;;;;;11.12;50.99;97323.05;1771547;79;25548;-81
2021/11/01 03:56:39;;;;;;;;;;;;;;;11.12;51.00;97295.56;1775219;79;21893;-82
2021/11/01 03:59:06;;;;;;;;;;;;;;;11.15;51.04;97310.98;1771424;79;25958;-82
2021/11/01 04:01:37;;;;;;;;;;;;;;;11.14;51.05;97313.25;1774181;79;24407;-83
2021/11/01 04:04:04;;;;;;;;;;;;;;;11.10;51.08;97309.26;1776047;79;20227;-83
2021/11/01 04:06:31;;;;;;;;;;;;;;;11.07;51.09;97308.72;1771626;79;25118;-83
2021/11/01 04:08:58;;;;;;;;;;;;;;;11.04;51.10;97299.81;1769382;79;22061;-83
2021/11/01 04:11:24;;;;;;;;;;;;;;;11.01;51.14;97286.53;1770445;79;26035;-83
2021/11/01 04:13:57;;;;;;;;;;;;;;;11.00;51.16;97295.34;1776872;80;24553;-83
2021/11/01 04:16:21;;;;;;;;;;;;;;;11.00;51.18;97294.03;1774467;79;20448;-82
2021/11/01 04:18:55;;;;;;;;;;;;;;;11.00;51.20;97282.25;1775165;79;25675;-83
2021/11/01 04:21:18;;;;;;;;;;;;;;;10.97;51.23;97286.44;1769863;79;22074;-83
2021/11/01 04:23:44;;;;;;;;;;;;;;;10.98;51.24;97297.27;1758082;79;26363;-82
2021/11/01 04:26:14;;;;;;;;;;;;;;;10.96;51.29;97292.66;1762091;79;24449;-82
2021/11/01 04:28:38;;;;;;;;;;;;;;;10.96;51.30;97290.53;1769365;79;20221;-82
2021/11/01 04:31:20;;;;;;;;;;;;;;;10.96;51.31;97295.77;1760508;79;20229;-81
2021/11/01 04:33:40;;;;;;;;;;;;;;;10.93;51.33;97292.09;1766050;79;22708;-82
2021/11/01 04:36:06;;;;;;;;;;;;;;;10.89;51.35;97284.53;1762920;79;25451;-82
2021/11/01 04:54:25;;;;;;;;;;;;;;;10.84;51.48;97271.51;1757370;79;20232;-82
2021/11/01 04:56:51;;;;;;;;;;;;;;;10.82;51.51;97283.41;1766324;79;20232;-82
2021/11/01 04:59:18;;;;;;;;;;;;;;;10.79;51.52;97272.41;1757601;80;21972;-82
2021/11/01 05:01:49;;;;;;;;;;;;;;;10.78;51.53;97273.36;1760527;80;25941;-82
2021/11/01 05:04:16;;;;;;;;;;;;;;;10.76;51.56;97271.35;1761186;79;24501;-83
2021/11/01 05:07:13;;;;;;;;;;;;;;;10.76;51.58;97268.73;1763838;80;20224;-82
2021/11/01 05:09:22;;;;;;;;;;;;;;;10.78;51.61;97272.05;1745611;79;25501;-82
2021/11/01 05:12:09;;;;;;;;;;;;;;;10.78;51.60;97268.95;1762698;79;22071;-81
2021/11/01 05:14:15;;;;;;;;;;;;;;;10.79;51.63;97276.33;1752576;80;25537;-82
2021/11/01 05:16:55;;;;;;;;;;;;;;;10.81;51.64;97277.00;1763850;79;24548;-82
2021/11/01 05:24:15;;;;;;;;;;;;;;;10.82;51.64;97285.20;1763409;79;22971;-83
2021/11/01 05:29:10;;;;;;;;;;;;;;;10.87;51.64;97292.16;1764378;81;24405;-83
2021/11/01 05:31:44;;;;;;;;;;;;;;;10.89;51.63;97284.53;1765304;80;20209;-83
2021/11/01 05:34:15;;;;;;;;;;;;;;;10.88;51.63;97292.51;1764319;80;25636;-83
2021/11/01 05:36:40;;;;;;;;;;;;;;;10.88;51.61;97287.27;1763491;80;22006;-83
2021/11/01 05:39:07;;;;;;;;;;;;;;;10.90;51.63;97294.52;1764817;81;26030;-83
2021/11/01 05:41:33;;;;;;;;;;;;;;;10.89;51.59;97287.63;1765070;81;24403;-82
2021/11/01 05:43:59;;;;;;;;;;;;;;;10.88;51.60;97294.64;1766210;80;20273;-83
2021/11/01 05:46:32;;;;;;;;;;;;;;;10.91;51.57;97285.67;1764939;80;20347;-83
2021/11/01 05:48:54;;;;;;;;;;;;;;;10.89;51.58;97289.77;1765068;80;21964;-83
2021/11/01 05:51:22;;;;;;;;;;;;;;;10.90;51.54;97294.52;1766530;80;25993;-83
2021/11/01 05:53:57;;;;;;;;;;;;;;;10.90;51.54;97294.52;1764049;79;25267;-82
2021/11/01 06:14:36;;;;;;;;;;;;;;;10.93;51.50;97298.64;1766126;80;21741;-82
2021/11/01 06:17:02;;;;;;;;;;;;;;;10.92;51.48;97296.50;1766592;81;26119;-82
2021/11/01 06:19:29;;;;;;;;;;;;;;;10.89;51.48;97300.23;1765135;81;24460;-82
2021/11/01 06:21:54;;;;;;;;;;;;;;;10.93;51.48;97283.76;1767007;81;20221;-83
2021/11/01 06:27:09;;;;;;;;;;;;;;;10.95;51.51;97300.65;1758637;80;22073;-82
2021/11/01 06:29:44;;;;;;;;;;;;;;;10.96;51.51;97302.30;1764863;79;26894;-82
2021/11/01 06:32:13;;;;;;;;;;;;;;;10.99;51.49;97300.70;1757839;79;24458;-83
2021/11/01 06:45:10;;;;;;;;;;;;;;;11.08;51.44;97305.11;1728168;80;25089;-82
2021/11/01 06:53:22;;;;;;;;;;;;;;;11.20;51.43;97306.16;1706936;81;22025;-81
2021/11/01 06:55:42;;;;;;;;;;;;;;;11.24;51.41;97310.62;1735079;79;26021;-81
2021/11/01 07:16:54;;;;;;;;;;;;;;;11.49;51.17;97303.52;1767862;79;24796;-82
2021/11/01 08:44:24;;;;;;;;;;;;;;;13.21;49.80;97291.03;1760913;79;26855;-82
2021/11/01 08:46:43;;;;;;;;;;;;;;;13.28;49.76;97288.14;1729243;80;24336;-82
2021/11/01 09:05:06;;;;;;;;;;;;;;;13.57;49.59;97279.98;1765042;79;24795;-82
2021/11/01 09:10:03;;;;;;;;;;;;;;;13.69;49.56;97277.45;1764965;79;26989;-82
2021/11/01 09:12:53;;;;;;;;;;;;;;;13.76;49.53;97273.20;1756172;79;25227;-82
2021/11/01 09:20:13;;;;;;;;;;;;;;;13.94;49.49;97269.20;1761107;79;22141;-82
2021/11/01 09:25:30;;;;;;;;;;;;;;;14.11;49.46;97265.19;1761795;79;24731;-82
2021/11/01 09:28:34;;;;;;;;;;;;;;;14.16;49.49;97266.85;1765149;79;20416;-82
2021/11/01 09:30:40;;;;;;;;;;;;;;;14.25;49.47;97264.58;1749201;79;24852;-83
2021/11/01 09:35:57;;;;;;;;;;;;;;;14.35;49.43;97259.17;1757829;79;25973;-83
2021/11/01 09:43:24;;;;;;;;;;;;;;;14.48;49.39;97250.37;1768362;79;25705;-83
2021/11/01 09:45:59;;;;;;;;;;;;;;;14.55;49.40;97254.52;1769265;79;22114;-83
2021/11/01 09:48:25;;;;;;;;;;;;;;;14.60;49.38;97256.17;1761291;79;25715;-82
2021/11/01 09:50:52;;;;;;;;;;;;;;;14.64;49.37;97252.22;1757110;79;24416;-83
2021/11/01 09:53:27;;;;;;;;;;;;;;;14.65;49.37;97244.17;1764831;79;20281;-82
2021/11/01 10:01:16;;;;;;;;;;;;;;;14.89;49.35;97251.80;1764306;79;25885;-83
2021/11/01 10:03:46;;;;;;;;;;;;;;;14.97;49.36;97249.16;1759472;79;25085;-83
2021/11/01 10:06:17;;;;;;;;;;;;;;;15.00;49.32;97247.00;1765149;79;20543;-83
2021/11/01 10:08:43;;;;;;;;;;;;;;;15.05;49.29;97249.97;1766417;79;25548;-83
2021/11/01 10:11:13;;;;;;;;;;;;;;;15.13;49.28;97243.89;1753874;79;22953;-83
2021/11/01 10:13:40;;;;;;;;;;;;;;;15.19;49.27;97241.09;1761003;79;25990;-83
2021/11/01 10:18:53;;;;;;;;;;;;;;;15.26;49.22;97238.96;1757875;79;20150;-83
2021/11/01 10:21:21;;;;;;;;;;;;;;;15.36;49.27;97236.97;1763123;79;24762;-83
2021/11/01 10:23:51;;;;;;;;;;;;;;;15.41;49.24;97239.11;1768312;78;22071;-83
2021/11/01 10:26:19;;;;;;;;;;;;;;;15.45;49.17;97233.33;1780347;78;26014;-83
2021/11/01 10:28:46;;;;;;;;;;;;;;;15.50;49.15;97226.23;1788199;78;24668;-83
2021/11/01 10:31:23;;;;;;;;;;;;;;;15.56;49.10;97230.05;1799628;78;20717;-83
2021/11/01 10:33:51;;;;;;;;;;;;;;;15.59;49.04;97227.09;1787185;78;24918;-83
2021/11/01 10:36:28;;;;;;;;;;;;;;;15.60;48.97;97228.73;1793954;78;22022;-83
2021/11/01 10:39:06;;;;;;;;;;;;;;;15.62;48.89;97235.48;1789820;78;25971;-84
2021/11/01 10:41:52;;;;;;;;;;;;;;;15.66;48.81;97232.83;1787441;78;24258;-84
2021/11/01 10:44:37;;;;;;;;;;;;;;;15.66;48.69;97222.77;1787174;78;20359;-84
2021/11/01 11:17:07;;;;;;;;;;;;;;;16.06;48.00;97196.76;1776484;78;21949;-83
2021/11/01 11:24:44;;;;;;;;;;;;;;;16.05;47.85;97191.98;1773752;78;20274;-84
2021/11/01 11:38:03;;;;;;;;;;;;;;;16.18;47.63;97181.70;1768763;79;20153;-84
2021/11/01 11:48:37;;;;;;;;;;;;;;;16.17;47.30;97180.55;1768347;79;24399;-84
2021/11/01 11:51:10;;;;;;;;;;;;;;;16.19;47.26;97174.11;1765972;80;20209;-84
2021/11/01 11:53:38;;;;;;;;;;;;;;;16.22;47.27;97170.28;1772965;79;24781;-85
2021/11/01 11:56:08;;;;;;;;;;;;;;;16.23;47.25;97167.48;1767022;77;22865;-84
2021/11/01 11:58:35;;;;;;;;;;;;;;;16.25;47.23;97160.22;1767123;79;25975;-83
2021/11/01 12:01:03;;;;;;;;;;;;;;;16.30;47.17;97164.48;1777111;80;24513;-84
2021/11/01 12:03:31;;;;;;;;;;;;;;;16.32;47.14;97167.75;1782746;77;20210;-84
2021/11/01 12:06:02;;;;;;;;;;;;;;;16.31;47.04;97168.74;1768972;78;24794;-84
2021/11/01 12:08:46;;;;;;;;;;;;;;;16.35;47.03;97165.77;1774120;78;21959;-84
2021/11/01 12:18:50;;;;;;;;;;;;;;;16.47;47.00;97151.18;1770146;79;24752;-84
2021/11/01 12:21:17;;;;;;;;;;;;;;;16.49;46.86;97153.13;1774828;78;22049;-84
2021/11/01 12:23:44;;;;;;;;;;;;;;;16.48;46.76;97148.84;1761350;78;26836;-84
2021/11/01 12:26:11;;;;;;;;;;;;;;;16.49;46.71;97147.34;1769335;79;24469;-83
2021/11/01 12:28:38;;;;;;;;;;;;;;;16.49;46.65;97144.70;1769182;79;20360;-83
2021/11/01 12:31:04;;;;;;;;;;;;;;;16.47;46.60;97140.62;1768899;79;24555;-83
2021/11/01 12:33:31;;;;;;;;;;;;;;;16.43;46.48;97141.94;1771017;79;22041;-83
2021/11/01 12:36:00;;;;;;;;;;;;;;;16.39;46.41;97141.48;1767473;79;25968;-83
2021/11/01 12:38:35;;;;;;;;;;;;;;;16.36;46.30;97142.34;1768626;79;24387;-83
2021/11/01 12:41:08;;;;;;;;;;;;;;;16.33;46.28;97138.22;1770363;79;20222;-84
2021/11/01 12:57:14;;;;;;;;;;;;;;;16.31;46.10;97138.38;1723753;80;25496;-84
2021/11/01 12:59:47;;;;;;;;;;;;;;;16.30;46.02;97146.50;1764854;80;22850;-85
2021/11/01 13:02:13;;;;;;;;;;;;;;;16.34;45.99;97141.18;1766119;79;27322;-83
2021/11/01 13:04:39;;;;;;;;;;;;;;;16.30;45.93;97140.72;1745767;80;24289;-84
2021/11/01 13:07:32;;;;;;;;;;;;;;;16.28;45.94;97132.14;1770308;79;20204;-84
2021/11/01 13:09:56;;;;;;;;;;;;;;;16.29;45.93;97136.92;1771046;79;24933;-83
2021/11/01 13:20:20;;;;;;;;;;;;;;;16.27;45.91;97142.37;1769559;79;20237;-83
2021/11/01 13:22:54;;;;;;;;;;;;;;;16.26;45.91;97141.22;1769133;79;24715;-83
2021/11/01 13:38:37;;;;;;;;;;;;;;;16.11;46.03;97138.50;1764620;79;21911;-83
2021/11/01 13:41:02;;;;;;;;;;;;;;;16.05;46.00;97137.88;1762385;79;26770;-82
2021/11/01 13:43:30;;;;;;;;;;;;;;;16.05;46.04;97139.19;1767217;79;25300;-83
2021/11/01 13:46:01;;;;;;;;;;;;;;;16.05;46.14;97137.05;1765768;79;20525;-84
2021/11/01 13:48:29;;;;;;;;;;;;;;;16.05;46.19;97141.83;1763667;79;24717;-83
2021/11/01 13:51:10;;;;;;;;;;;;;;;16.08;46.27;97138.86;1764979;80;21977;-85
2021/11/01 13:53:45;;;;;;;;;;;;;;;16.11;46.33;97135.86;1763426;81;25978;-85
2021/11/01 13:56:17;;;;;;;;;;;;;;;16.19;46.39;97139.80;1767319;79;24540;-85
2021/11/01 13:58:38;;;;;;;;;;;;;;;16.22;46.43;97134.65;1766396;80;20299;-84
2021/11/01 14:14:43;;;;;;;;;;;;;;;16.19;46.77;97131.05;1764218;80;24753;-84
2021/11/01 14:33:39;;;;;;;;;;;;;;;15.46;46.87;97120.78;1777403;78;26780;-86
2021/11/01 14:55:52;;;;;;;;;;;;;;;14.78;47.43;97101.98;1773068;80;25629;-86
2021/11/01 15:00:27;;;;;;;;;;;;;;;14.67;47.61;97091.78;1769482;79;26115;-86
2021/11/01 15:08:44;;;;;;;;;;;;;;;14.72;47.88;97090.79;1775116;79;24813;-85
2021/11/01 15:21:39;;;;;;;;;;;;;;;14.26;48.25;97093.03;1705876;80;20266;-86
2021/11/01 15:37:40;;;;;;;;;;;;;;;14.02;48.70;97096.44;1697281;84;21979;-89
2021/11/01 16:15:08;;;;;;;;;;;;;;;13.94;48.82;97095.61;1696038;83;25320;-85
2021/11/01 16:18:36;;;;;;;;;;;;;;;13.24;49.69;97105.03;1718865;81;22081;-86
2021/11/01 16:21:03;;;;;;;;;;;;;;;13.22;49.74;97108.78;1716194;81;26085;-87
2021/11/01 16:23:36;;;;;;;;;;;;;;;13.24;49.83;97110.29;1705953;82;24508;-86
2021/11/01 16:26:30;;;;;;;;;;;;;;;13.28;49.88;97112.10;1701979;82;20483;-90
2021/11/01 16:29:10;;;;;;;;;;;;;;;13.29;49.95;97108.50;1710955;82;24401;-87
2021/11/01 16:31:58;;;;;;;;;;;;;;;13.28;50.01;97114.73;1657632;85;20186;-88
2021/11/01 16:34:31;;;;;;;;;;;;;;;13.15;50.06;97115.62;1662016;85;26762;-87
2021/11/01 16:39:47;;;;;;;;;;;;;;;13.04;50.24;97110.11;1675117;84;20179;-89
2021/11/01 16:42:12;;;;;;;;;;;;;;;12.97;50.30;97112.56;1669160;84;24877;-89
2021/11/01 16:44:43;;;;;;;;;;;;;;;13.00;50.41;97112.23;1667210;84;21954;-89
2021/11/01 16:47:09;;;;;;;;;;;;;;;13.03;50.46;97116.86;1668625;84;26007;-89
2021/11/01 16:49:40;;;;;;;;;;;;;;;12.97;50.54;97107.80;1630593;86;25107;-86
2021/11/01 16:52:15;;;;;;;;;;;;;;;12.94;50.59;97111.53;1629864;86;20347;-88
2021/11/01 16:54:46;;;;;;;;;;;;;;;12.91;50.67;97102.67;1630085;86;24862;-86
2021/11/01 16:57:20;;;;;;;;;;;;;;;12.90;50.73;97106.27;1632237;86;22016;-85
2021/11/01 16:59:51;;;;;;;;;;;;;;;12.91;50.82;97106.61;1630994;86;25961;-89
2021/11/01 17:04:48;;;;;;;;;;;;;;;12.68;50.92;97100.69;1629736;86;20233;-87
2021/11/01 17:07:39;;;;;;;;;;;;;;;12.54;50.98;97108.62;1667028;84;25031;-88
2021/11/01 17:26:38;;;;;;;;;;;;;;;12.36;51.59;97116.50;1628752;86;26230;-88
2021/11/01 17:37:24;;;;;;;;;;;;;;;12.31;52.02;97103.02;1636834;86;21563;-85
2021/11/01 18:51:23;;;;;;;;;;;;;;;12.41;55.05;97074.06;1642974;86;24457;-86
2021/11/01 18:53:45;;;;;;;;;;;;;;;12.40;55.13;97071.10;1669786;84;20290;-87
2021/11/01 18:56:15;;;;;;;;;;;;;;;12.41;55.23;97060.95;1664646;84;24733;-86
2021/11/01 18:58:42;;;;;;;;;;;;;;;12.44;55.29;97064.08;1636667;86;22034;-86
2021/11/01 19:01:14;;;;;;;;;;;;;;;12.44;55.38;97065.87;1662243;84;26208;-86
2021/11/01 19:03:45;;;;;;;;;;;;;;;12.43;55.43;97052.45;1652750;85;24790;-86
2021/11/01 19:09:10;;;;;;;;;;;;;;;12.40;55.51;97050.11;1679128;84;24765;-85
2021/11/01 20:06:02;;;;;;;;;;;;;;;12.61;56.35;97037.95;1789470;79;22150;-89
2021/11/01 20:11:56;;;;;;;;;;;;;;;12.60;56.38;97038.45;1786872;79;24986;-88
2021/11/01 20:17:16;;;;;;;;;;;;;;;12.48;56.40;97032.65;1783360;79;24998;-88
2021/11/01 21:25:48;;;;;;;;;;;;;;;12.25;57.56;97005.73;1787483;79;24783;-88
2021/11/01 21:28:14;;;;;;;;;;;;;;;12.22;57.57;97000.29;1770987;79;22210;-88
2021/11/01 21:30:40;;;;;;;;;;;;;;;12.23;57.62;97001.12;1785117;79;25995;-88
2021/11/01 21:33:07;;;;;;;;;;;;;;;12.23;57.66;96999.80;1742032;80;24474;-88
2021/11/01 21:35:41;;;;;;;;;;;;;;;12.22;57.69;97000.29;1752238;80;20307;-88
2021/11/01 21:38:01;;;;;;;;;;;;;;;12.25;57.70;96996.55;1747916;80;24750;-88
2021/11/01 21:40:27;;;;;;;;;;;;;;;12.26;57.74;96995.58;1782744;79;20849;-88
2021/11/01 21:42:53;;;;;;;;;;;;;;;12.24;57.71;96994.90;1788286;79;26186;-88
2021/11/01 21:45:19;;;;;;;;;;;;;;;12.24;57.75;96987.03;1786407;79;20342;-88
2021/11/01 21:47:45;;;;;;;;;;;;;;;12.21;57.77;96986.04;1767521;79;20271;-88
2021/11/01 21:50:12;;;;;;;;;;;;;;;12.21;57.79;96984.73;1780106;79;24924;-88
2021/11/01 21:52:38;;;;;;;;;;;;;;;12.22;57.80;96989.80;1792707;78;22072;-88
2021/11/01 21:55:05;;;;;;;;;;;;;;;12.24;57.80;96990.97;1751209;80;25953;-88
2021/11/01 22:16:40;;;;;;;;;;;;;;;12.27;57.88;96965.76;1786582;79;24144;-90
2021/11/01 22:38:13;;;;;;;;;;;;;;;12.23;58.08;96932.44;1782979;79;26778;-88
2021/11/01 22:40:08;;;;;;;;;;;;;;;12.25;58.10;96921.80;1782591;79;20390;-90
2021/11/01 22:58:07;;;;;;;;;;;;;;;12.25;58.25;96921.80;1742591;80;22169;-84
2021/11/01 23:00:41;;;;;;;;;;;;;;;12.23;58.26;96921.13;1740662;80;25416;-84
2021/11/01 23:03:11;;;;;;;;;;;;;;;12.22;58.26;96924.23;1746693;80;24524;-84
2021/11/01 23:05:52;;;;;;;;;;;;;;;12.21;58.28;96920.47;1745810;80;20320;-84
2021/11/01 23:32:58;;;;;;;;;;;;;;;12.06;58.55;96884.79;1743821;80;20246;-91
2021/11/01 23:35:25;;;;;;;;;;;;;;;12.14;58.58;96900.59;1713922;82;24766;-90
2021/11/01 23:37:51;;;;;;;;;;;;;;;12.13;58.62;96894.52;1711873;82;22726;-90
2021/11/01 23:40:19;;;;;;;;;;;;;;;12.12;58.64;96887.62;1730924;80;26782;-90
2021/11/01 23:42:46;;;;;;;;;;;;;;;12.15;58.67;96889.13;1735186;80;24449;-90
2021/11/01 23:45:12;;;;;;;;;;;;;;;12.21;58.71;96889.83;1742000;80;20226;-90
2021/11/01 23:47:38;;;;;;;;;;;;;;;12.24;58.76;96896.55;1721174;81;24932;-90
2021/11/01 23:50:05;;;;;;;;;;;;;;;12.25;58.77;96902.95;1739858;80;22084;-90
2021/11/01 23:52:41;;;;;;;;;;;;;;;12.27;58.79;96896.25;1735359;80;25982;-90
2021/11/01 23:55:09;;;;;;;;;;;;;;;12.28;58.81;96890.00;1734687;80;25086;-88
2021/11/01 23:57:36;;;;;;;;;;;;;;;12.28;58.82;96896.08;1737538;80;20314;-89
